Brooklyn Park, MN (55428)

5:37 AM CST on February 13, 2016 (GMT -0600)
New Hope | | Change Station
CLOSE
Current Station
Personal Weather Station
Location: Minneapolis, MN
Elevation: 903 ft
Nearby Weather Stations

Elev 903 ft 45.07 °N, 93.38 °W | Updated 0 second ago

Clear
Clear
-6.3 °F
Feels Like -6 °F
N
0.0
Wind Variable Wind from West
Gusts 0.0 mph

Today
High -- | Low -- °F
--% Chance of Precip.
Yesterday
High -- | Low -- °F
Precip. -- in
Pressure 30.70 in
Visibility 10.0 miles
Clouds Clear
Windchill -6 °F
Dew Point -24 °F
Humidity 42%
Rainfall 0.00 in
Snow Depth Not available.
7:18 AM 5:37 PM
Waxing Crescent, 30% visible
METAR KMIC 131053Z AUTO 33004KT 10SM CLR M21/M26 A3062 RMK AO2 SLP395 T12111256 TSNO
Pressure 30.70 in
Visibility 10.0 miles
Clouds Clear
Windchill -6 °F
Dew Point -24 °F
Humidity 42%
Rainfall 0.00 in
Snow Depth Not available.
7:18 AM 5:37 PM
Waxing Crescent, 30% visible
METAR KMIC 131053Z AUTO 33004KT 10SM CLR M21/M26 A3062 RMK AO2 SLP395 T12111256 TSNO

10-Day Weather Forecast

Almanac

Astronomy

Feb. 13, 2016 Rise Set
Actual Time
Civil Twilight
Nautical Twilight
Astronomical Twilight
Moon
Length of Visible Light
Length of Day
Tomorrow will be .
, % of the Moon is Illuminated

Today's Extremes

State Highs State Lows

Community

WunderPhotos

Upload Photos

1,892,541 photos uploaded!

WunderBlog® & News

Nearby

Air Quality

  Air Quality AQ Index Pollutant
Not available.

Snow Depth

Station Depth Elevation

Earthquake Activity

City Distance Mag. Time & Date
Minimum magnitude displayed is 2.5.

Coastal Water Temperatures

Place Temperature

Stations

Nearby Weather Stations

Station Location Temp. Windchill Dew Point Humidity Wind Precip. Elev Updated Type
                   

Watches & Warnings

There are currently no watches in effect.